Time;durP1;ratioP1;P1;durP2;ratioP2;P2;SDS_P1;SDS_P2;PMS_P1;PMS_P2;Temp;Humidity;BMP_temperature;BMP_pressure;BME280_temperature;BME280_humidity;BME280_pressure;Samples;Min_cycle;Max_cycle;Signal;HPM_P1;HPM_P2
2023/04/28 00:02:09;;;;;;;16.23;6.83;;;;;;;11.07;49.88;99630.19;5062177;28;20163;-83
2023/04/28 00:04:34;;;;;;;12.37;5.73;;;;;;;11.05;50.53;99629.66;5060924;28;20272;-83
2023/04/28 00:06:59;;;;;;;18.80;8.43;;;;;;;10.99;51.01;99630.72;5059993;28;20797;-85
2023/04/28 00:09:24;;;;;;;13.33;7.83;;;;;;;10.96;52.66;99631.28;5061145;28;20265;-83
2023/04/28 00:11:50;;;;;;;15.85;7.40;;;;;;;10.90;53.65;99632.38;5060498;28;20280;-82
2023/04/28 00:14:15;;;;;;;14.20;7.80;;;;;;;10.98;53.24;99627.19;5060685;28;20036;-82
2023/04/28 00:16:40;;;;;;;21.38;7.03;;;;;;;10.89;54.58;99627.97;5060831;28;20245;-84
2023/04/28 00:19:06;;;;;;;14.63;7.87;;;;;;;10.94;54.68;99622.56;5060795;28;20506;-83
2023/04/28 00:21:31;;;;;;;22.83;9.45;;;;;;;10.96;55.08;99609.47;5061213;28;20298;-84
2023/04/28 00:23:57;;;;;;;12.43;7.22;;;;;;;10.91;55.57;99610.28;5060131;28;20110;-84
2023/04/28 00:26:22;;;;;;;15.75;8.27;;;;;;;10.91;56.21;99607.53;5060552;28;20723;-83
2023/04/28 00:28:47;;;;;;;14.35;7.40;;;;;;;10.89;56.13;99597.97;5060493;28;20490;-81
2023/04/28 00:31:14;;;;;;;19.30;9.83;;;;;;;10.93;56.09;99590.91;5062277;28;20281;-82
2023/04/28 00:33:41;;;;;;;19.58;8.07;;;;;;;10.86;56.33;99591.19;5060794;28;20272;-80
2023/04/28 00:36:06;;;;;;;16.83;9.82;;;;;;;10.85;57.50;99593.09;5061046;28;20031;-80
2023/04/28 00:38:32;;;;;;;15.48;7.95;;;;;;;10.85;58.02;99587.63;5059032;28;20029;-81
2023/04/28 00:40:57;;;;;;;21.47;9.87;;;;;;;10.76;59.39;99586.50;5060237;28;20052;-82
2023/04/28 00:43:22;;;;;;;15.18;7.40;;;;;;;10.73;60.35;99581.59;5062398;28;20253;-81
2023/04/28 00:45:48;;;;;;;20.20;8.07;;;;;;;10.65;61.22;99576.69;5063048;28;20085;-82
2023/04/28 00:48:14;;;;;;;19.02;8.35;;;;;;;10.59;61.69;99573.97;5060659;28;20028;-80
2023/04/28 00:50:40;;;;;;;14.13;7.05;;;;;;;10.73;61.14;99567.97;5061320;28;20082;-79
2023/04/28 00:53:06;;;;;;;16.08;7.20;;;;;;;10.85;62.30;99560.34;5060650;28;20040;-81
2023/04/28 00:55:33;;;;;;;13.57;6.68;;;;;;;10.96;62.06;99560.38;5060629;28;20036;-81
2023/04/28 00:57:59;;;;;;;13.70;6.07;;;;;;;11.05;62.45;99563.34;5061019;28;20389;-82
2023/04/28 01:00:24;;;;;;;13.40;6.82;;;;;;;11.04;64.02;99562.56;5060186;28;20066;-80
2023/04/28 01:02:51;;;;;;;13.05;7.20;;;;;;;11.13;64.57;99564.72;5060087;28;20060;-81
2023/04/28 01:05:17;;;;;;;10.50;5.90;;;;;;;11.07;63.86;99567.44;5061296;28;20669;-79
2023/04/28 01:07:42;;;;;;;10.68;5.70;;;;;;;11.22;64.82;99563.09;5060402;28;20031;-80
2023/04/28 01:10:08;;;;;;;16.60;6.63;;;;;;;11.32;65.66;99557.63;5060559;28;20039;-79
2023/04/28 01:12:33;;;;;;;14.27;6.97;;;;;;;11.24;65.65;99558.16;5059032;28;21088;-81
2023/04/28 01:14:58;;;;;;;11.63;6.43;;;;;;;11.24;65.25;99552.72;5059563;28;20025;-80
2023/04/28 01:17:24;;;;;;;12.80;7.55;;;;;;;11.08;65.69;99551.91;5060435;28;20268;-80
2023/04/28 01:19:49;;;;;;;11.27;4.78;;;;;;;11.05;65.88;99552.44;5058631;28;20124;-79
2023/04/28 01:22:15;;;;;;;13.90;6.53;;;;;;;11.12;66.05;99552.16;5059502;28;20093;-81
2023/04/28 01:24:40;;;;;;;12.27;6.40;;;;;;;11.18;66.14;99556.53;5060212;28;20095;-79
2023/04/28 01:27:06;;;;;;;16.75;5.88;;;;;;;11.13;66.72;99546.44;5059658;28;20600;-82
2023/04/28 01:29:31;;;;;;;11.80;6.23;;;;;;;11.05;67.19;99553.25;5059407;28;20040;-80
2023/04/28 01:31:56;;;;;;;11.00;6.07;;;;;;;11.02;67.25;99540.19;5060101;28;20279;-81
2023/04/28 01:34:21;;;;;;;24.63;6.13;;;;;;;11.03;67.51;99541.81;5059260;28;20309;-79
2023/04/28 01:36:46;;;;;;;20.30;8.87;;;;;;;11.05;68.44;99542.34;5060089;28;20268;-81
2023/04/28 01:39:12;;;;;;;16.43;7.43;;;;;;;11.12;68.59;99552.16;5060431;28;20863;-79
2023/04/28 01:41:38;;;;;;;17.33;9.23;;;;;;;11.18;69.20;99548.34;5059171;28;20360;-80
2023/04/28 01:44:05;;;;;;;16.38;7.30;;;;;;;11.20;69.20;99554.34;5060813;28;20028;-79
2023/04/28 01:46:30;;;;;;;13.77;6.60;;;;;;;11.23;69.88;99544.81;5058838;28;20032;-80
2023/04/28 01:48:56;;;;;;;20.88;8.88;;;;;;;11.22;71.03;99543.97;5058900;28;20071;-79
2023/04/28 01:51:21;;;;;;;15.03;8.43;;;;;;;11.06;72.47;99544.00;5060816;28;20478;-81
2023/04/28 01:53:47;;;;;;;12.23;6.70;;;;;;;10.99;73.07;99543.44;5059136;28;20372;-80
2023/04/28 01:56:12;;;;;;;19.00;9.03;;;;;;;10.94;73.01;99546.19;5059279;28;20273;-80
2023/04/28 01:58:37;;;;;;;16.80;8.70;;;;;;;10.89;73.24;99544.25;5059265;28;20289;-79
2023/04/28 02:01:02;;;;;;;18.73;7.57;;;;;;;10.77;74.15;99536.34;5059384;28;20258;-80
2023/04/28 02:03:28;;;;;;;12.65;5.85;;;;;;;10.78;74.05;99529.78;5059769;28;20677;-82
2023/04/28 02:05:53;;;;;;;29.73;8.53;;;;;;;10.72;73.93;99528.16;5059997;28;20128;-80
2023/04/28 02:08:18;;;;;;;13.02;6.30;;;;;;;10.62;74.28;99532.50;5058978;28;20245;-81
2023/04/28 02:10:44;;;;;;;17.30;7.20;;;;;;;10.63;74.52;99525.16;5058518;28;20059;-81
2023/04/28 02:13:09;;;;;;;11.90;6.50;;;;;;;10.60;74.81;99533.88;5060120;28;20265;-80
2023/04/28 02:15:39;;;;;;;13.13;6.35;;;;;;;10.67;74.00;99542.63;5058699;28;20040;-81
2023/04/28 02:18:05;;;;;;;15.38;7.53;;;;;;;10.79;74.03;99547.81;5059542;28;20036;-82
2023/04/28 02:20:30;;;;;;;11.65;6.43;;;;;;;10.84;74.07;99542.34;5062175;28;20037;-80
2023/04/28 02:22:55;;;;;;;12.63;7.33;;;;;;;10.89;74.21;99541.53;5062900;28;20032;-80
2023/04/28 02:25:21;;;;;;;23.67;9.53;;;;;;;10.85;74.51;99535.81;5062720;28;20269;-81
2023/04/28 02:27:46;;;;;;;13.13;7.63;;;;;;;10.86;75.01;99528.47;5062957;28;20938;-80
2023/04/28 02:30:12;;;;;;;13.25;6.82;;;;;;;10.76;75.92;99523.78;5064942;28;20036;-79
2023/04/28 02:32:37;;;;;;;11.60;7.05;;;;;;;10.66;76.59;99518.34;5063066;28;20036;-80
2023/04/28 02:35:03;;;;;;;12.53;7.07;;;;;;;10.57;77.21;99512.63;5063839;28;20043;-81
2023/04/28 02:37:28;;;;;;;11.75;6.70;;;;;;;10.40;77.67;99516.38;5062396;28;20261;-79
2023/04/28 02:39:53;;;;;;;13.52;6.57;;;;;;;10.36;78.33;99510.63;5062277;28;20068;-79
2023/04/28 02:42:18;;;;;;;18.85;7.45;;;;;;;10.37;78.67;99511.47;5063732;28;20118;-79
2023/04/28 02:44:44;;;;;;;13.23;8.02;;;;;;;10.37;78.68;99506.81;5062185;28;20683;-82
2023/04/28 02:47:09;;;;;;;14.43;7.55;;;;;;;10.36;79.28;99499.75;5062256;28;20025;-83
2023/04/28 02:49:35;;;;;;;16.88;8.00;;;;;;;10.41;79.06;99504.38;5063376;28;20029;-81
2023/04/28 02:52:00;;;;;;;10.50;6.35;;;;;;;10.38;79.45;99505.75;5063359;28;20241;-82
2023/04/28 02:54:28;;;;;;;16.13;7.27;;;;;;;10.43;79.26;99502.22;5063468;28;20076;-79
2023/04/28 02:56:54;;;;;;;12.98;6.35;;;;;;;10.47;79.10;99505.22;5062800;28;20297;-81
2023/04/28 02:59:20;;;;;;;11.45;6.55;;;;;;;10.48;79.52;99506.84;5062279;28;20094;-80
2023/04/28 03:01:46;;;;;;;17.25;8.20;;;;;;;10.55;79.18;99510.16;5062686;28;20029;-81
2023/04/28 03:04:12;;;;;;;12.43;7.47;;;;;;;10.57;79.24;99505.25;5064144;28;20044;-79
2023/04/28 03:06:37;;;;;;;15.25;7.80;;;;;;;10.67;78.62;99509.91;5062543;28;20604;-80
2023/04/28 03:09:02;;;;;;;13.98;8.82;;;;;;;10.66;79.20;99507.44;5062778;28;20036;-80
2023/04/28 03:11:28;;;;;;;14.97;7.10;;;;;;;10.73;78.95;99508.81;5062169;28;20039;-80
2023/04/28 03:13:53;;;;;;;12.87;6.70;;;;;;;10.68;78.91;99505.28;5062143;28;20361;-82
2023/04/28 03:16:18;;;;;;;13.43;7.25;;;;;;;10.73;79.17;99497.09;5062456;28;20351;-81
2023/04/28 03:18:44;;;;;;;10.75;6.38;;;;;;;10.67;79.51;99507.16;5063515;28;20153;-82
2023/04/28 03:21:09;;;;;;;13.70;8.20;;;;;;;10.60;79.48;99492.97;5062922;28;20679;-79
2023/04/28 03:23:34;;;;;;;14.10;7.37;;;;;;;10.67;79.40;99496.28;5062760;28;20249;-81
2023/04/28 03:25:59;;;;;;;21.00;7.43;;;;;;;10.59;79.71;99491.34;5060263;28;20277;-82
2023/04/28 03:28:25;;;;;;;13.20;7.70;;;;;;;10.75;78.85;99505.81;5062374;28;20932;-81
2023/04/28 03:30:50;;;;;;;16.00;9.25;;;;;;;10.81;78.72;99491.09;5060976;28;20036;-81
2023/04/28 03:33:15;;;;;;;12.20;5.73;;;;;;;10.71;78.97;99482.91;5062764;28;20032;-81
2023/04/28 03:35:41;;;;;;;14.40;6.23;;;;;;;10.73;78.86;99472.53;5061778;28;20730;-80
2023/04/28 03:38:06;;;;;;;10.95;6.55;;;;;;;10.64;79.32;99471.47;5062055;28;20270;-80
2023/04/28 03:40:31;;;;;;;12.02;6.30;;;;;;;10.67;79.47;99479.09;5061240;28;20060;-84
2023/04/28 03:42:57;;;;;;;15.35;7.13;;;;;;;10.67;79.45;99470.91;5091233;28;20057;-81
2023/04/28 03:45:22;;;;;;;13.20;7.60;;;;;;;10.67;79.39;99465.44;5061560;28;20032;-80
2023/04/28 03:47:47;;;;;;;16.58;7.57;;;;;;;10.58;79.20;99467.91;5061425;28;20244;-80
2023/04/28 03:50:12;;;;;;;13.73;7.53;;;;;;;10.58;79.30;99463.25;5062370;28;20793;-82
2023/04/28 03:52:38;;;;;;;12.13;6.15;;;;;;;10.61;78.87;99462.75;5062420;28;20347;-80
2023/04/28 03:55:03;;;;;;;10.85;6.53;;;;;;;10.62;78.70;99461.63;5060925;28;20048;-80
2023/04/28 03:57:29;;;;;;;13.43;7.35;;;;;;;10.58;78.81;99452.38;5061600;28;20047;-81
2023/04/28 03:59:54;;;;;;;13.65;8.05;;;;;;;10.54;79.06;99448.53;5061796;28;20529;-79
2023/04/28 04:02:19;;;;;;;13.87;6.63;;;;;;;10.45;79.22;99441.97;5061683;28;20032;-81
2023/04/28 04:04:45;;;;;;;16.45;6.22;;;;;;;10.42;79.49;99440.59;5061320;28;20252;-81
2023/04/28 04:07:10;;;;;;;10.27;5.73;;;;;;;10.35;79.66;99437.34;5061091;28;20055;-81
2023/04/28 04:09:35;;;;;;;14.45;6.13;;;;;;;10.26;80.26;99439.78;5062436;28;20315;-80
2023/04/28 04:12:01;;;;;;;15.63;6.80;;;;;;;10.31;80.84;99442.53;5061758;28;20036;-80
2023/04/28 04:14:26;;;;;;;13.75;6.82;;;;;;;10.21;80.68;99439.78;5061274;28;20268;-81
2023/04/28 04:16:51;;;;;;;14.27;6.13;;;;;;;10.11;81.08;99427.75;5061212;28;20033;-80
2023/04/28 04:19:16;;;;;;;10.55;5.03;;;;;;;10.12;81.35;99423.97;5060713;28;20103;-79
2023/04/28 04:21:42;;;;;;;12.45;5.63;;;;;;;10.06;81.83;99419.59;5060996;28;20039;-81
2023/04/28 04:24:07;;;;;;;13.00;6.63;;;;;;;10.07;81.92;99421.22;5061365;28;20066;-80
2023/04/28 04:26:32;;;;;;;9.93;5.65;;;;;;;10.10;82.13;99415.25;5060425;28;20449;-80
2023/04/28 04:28:58;;;;;;;11.60;5.57;;;;;;;10.15;81.89;99417.13;5060956;28;20397;-80
2023/04/28 04:31:23;;;;;;;13.02;6.20;;;;;;;10.15;81.93;99407.06;5061047;28;20253;-81
2023/04/28 04:33:48;;;;;;;11.75;5.93;;;;;;;10.14;82.87;99410.91;5061530;28;20032;-80
2023/04/28 04:36:14;;;;;;;12.13;6.00;;;;;;;10.16;82.76;99400.53;5060520;28;20536;-79
2023/04/28 04:38:39;;;;;;;14.38;7.18;;;;;;;10.21;83.16;99394.25;5061382;28;20285;-81
2023/04/28 04:41:04;;;;;;;11.48;5.68;;;;;;;10.19;83.48;99395.66;5058939;28;20076;-80
2023/04/28 04:43:30;;;;;;;7.75;4.85;;;;;;;10.16;83.23;99391.53;5059698;28;20120;-79
2023/04/28 04:45:55;;;;;;;11.00;5.97;;;;;;;10.23;nan;99383.13;5060077;28;20039;-80
2023/04/28 04:48:20;;;;;;;15.75;7.22;;;;;;;10.18;83.30;99388.53;5060915;28;20513;-80
2023/04/28 04:50:46;;;;;;;9.38;4.95;;;;;;;10.14;83.50;99396.44;5060354;28;20601;-79
2023/04/28 04:53:11;;;;;;;14.52;6.72;;;;;;;10.13;83.67;99401.06;5061342;28;20085;-81
2023/04/28 04:55:37;;;;;;;9.20;5.47;;;;;;;10.09;84.03;99408.16;5059999;28;20028;-81
2023/04/28 04:58:02;;;;;;;11.35;6.20;;;;;;;10.13;83.49;99403.78;5059363;28;20461;-80
2023/04/28 05:00:28;;;;;;;10.73;5.13;;;;;;;10.18;83.82;99404.88;5060401;28;20602;-81
2023/04/28 05:02:53;;;;;;;11.45;6.03;;;;;;;10.26;83.79;99420.69;5059541;28;20291;-79
2023/04/28 05:05:18;;;;;;;12.47;7.17;;;;;;;10.44;82.98;99429.44;5060618;28;20049;-79
2023/04/28 05:07:43;;;;;;;16.17;7.97;;;;;;;10.57;82.32;99428.94;5060993;28;20257;-79
2023/04/28 05:10:10;;;;;;;14.82;5.85;;;;;;;10.72;81.46;99424.53;5059438;28;20041;-80
2023/04/28 05:12:36;;;;;;;11.23;5.20;;;;;;;10.74;81.35;99434.09;5060317;28;20037;-80
2023/04/28 05:15:01;;;;;;;9.77;5.53;;;;;;;10.91;80.90;99426.72;5060217;28;20036;-80
2023/04/28 05:17:26;;;;;;;11.32;5.28;;;;;;;11.00;80.31;99418.78;5058359;28;20582;-79
2023/04/28 05:19:52;;;;;;;10.53;5.83;;;;;;;10.91;81.36;99421.25;5060632;28;20024;-80
2023/04/28 05:22:17;;;;;;;14.47;5.47;;;;;;;10.92;81.58;99412.00;5059934;28;20262;-79
2023/04/28 05:24:42;;;;;;;13.23;6.77;;;;;;;11.05;81.30;99408.69;5060008;28;20269;-81
2023/04/28 05:27:07;;;;;;;10.83;5.37;;;;;;;11.05;81.70;99413.31;5059950;28;20333;-80
2023/04/28 05:29:33;;;;;;;10.77;5.03;;;;;;;11.02;81.99;99411.97;5059920;28;20339;-81
2023/04/28 05:31:58;;;;;;;11.18;6.50;;;;;;;10.86;82.51;99411.97;5060397;28;20276;-79
2023/04/28 05:34:23;;;;;;;12.73;5.17;;;;;;;10.72;83.59;99402.72;5060453;28;20036;-81
2023/04/28 05:36:49;;;;;;;9.10;4.57;;;;;;;10.65;84.20;99396.75;5059951;28;20273;-80
2023/04/28 05:39:14;;;;;;;13.25;7.45;;;;;;;10.78;83.78;99390.72;5060410;28;20035;-80
2023/04/28 05:41:39;;;;;;;10.00;5.17;;;;;;;10.64;84.75;99395.94;5058528;28;20140;-81
2023/04/28 05:44:05;;;;;;;8.75;5.50;;;;;;;10.61;85.01;99391.03;5061028;28;20766;-80
2023/04/28 05:46:30;;;;;;;9.00;5.18;;;;;;;10.66;84.74;99387.50;5058914;28;20811;-81
2023/04/28 05:48:56;;;;;;;10.93;6.43;;;;;;;10.65;85.32;99380.41;5059209;28;20044;-82
2023/04/28 05:51:21;;;;;;;8.57;4.63;;;;;;;10.55;86.12;99373.88;5059618;28;20063;-81
2023/04/28 05:53:47;;;;;;;14.18;5.72;;;;;;;10.49;86.76;99361.34;5058721;28;20046;-79
2023/04/28 05:56:14;;;;;;;19.65;6.90;;;;;;;10.56;86.60;99359.13;5059831;28;20040;-80
2023/04/28 05:58:39;;;;;;;11.93;5.75;;;;;;;10.66;86.63;99365.69;5060225;28;20113;-83
2023/04/28 06:01:04;;;;;;;11.00;5.47;;;;;;;10.59;86.92;99361.34;5059213;28;20025;-82
2023/04/28 06:03:30;;;;;;;12.25;6.40;;;;;;;10.53;87.04;99362.44;5059158;28;20093;-82
2023/04/28 06:05:55;;;;;;;10.75;5.93;;;;;;;10.60;86.90;99367.56;5058801;28;20759;-80
2023/04/28 06:08:20;;;;;;;10.80;6.05;;;;;;;10.45;87.52;99358.31;5059452;28;20028;-80
2023/04/28 06:10:46;;;;;;;10.38;5.45;;;;;;;10.41;87.83;99365.41;5059795;28;20025;-80
2023/04/28 06:13:11;;;;;;;13.63;7.27;;;;;;;10.43;87.66;99367.84;5059114;28;20035;-80
2023/04/28 06:15:36;;;;;;;11.83;6.23;;;;;;;10.50;87.77;99368.41;5058479;28;20281;-80
2023/04/28 06:18:02;;;;;;;16.48;6.75;;;;;;;10.62;87.34;99365.41;5058256;28;20302;-80
2023/04/28 06:20:27;;;;;;;14.85;6.53;;;;;;;10.67;87.05;99353.69;5059800;28;20029;-81
2023/04/28 06:22:52;;;;;;;13.80;5.67;;;;;;;10.84;86.79;99351.44;5059641;28;20120;-80
2023/04/28 06:25:18;;;;;;;12.75;5.78;;;;;;;10.92;86.07;99354.72;5057798;28;20293;-81
2023/04/28 06:27:43;;;;;;;12.57;6.37;;;;;;;11.05;85.16;99362.31;5058227;28;20044;-81
2023/04/28 06:30:08;;;;;;;9.57;5.53;;;;;;;11.18;84.90;99360.91;5058011;28;20262;-82
2023/04/28 06:32:34;;;;;;;11.38;5.40;;;;;;;11.25;84.50;99365.25;5059371;28;20029;-79
2023/04/28 06:34:59;;;;;;;10.95;6.15;;;;;;;11.26;84.55;99366.88;5057111;28;21214;-82
2023/04/28 06:37:25;;;;;;;9.65;5.93;;;;;;;11.47;84.21;99362.13;5058928;28;20048;-80
2023/04/28 06:39:50;;;;;;;13.45;7.07;;;;;;;11.58;83.60;99351.16;5058207;28;20051;-80
2023/04/28 06:42:17;;;;;;;12.90;7.30;;;;;;;11.60;83.79;99359.88;5060190;28;21146;-81
2023/04/28 06:44:43;;;;;;;11.02;6.35;;;;;;;11.73;83.56;99347.53;5057842;28;20061;-80
2023/04/28 06:47:09;;;;;;;8.95;5.70;;;;;;;11.73;83.70;99334.69;5059129;28;20386;-80
2023/04/28 06:49:34;;;;;;;11.02;6.10;;;;;;;11.75;84.51;99323.47;5059091;28;20034;-82
2023/04/28 06:51:59;;;;;;;11.23;7.33;;;;;;;11.74;84.26;99328.13;5060583;28;21187;-81
2023/04/28 06:54:25;;;;;;;11.23;6.85;;;;;;;11.86;84.05;99329.66;5059113;28;20269;-81
2023/04/28 06:56:50;;;;;;;12.18;6.75;;;;;;;11.92;83.48;99323.06;5058193;28;20119;-80
2023/04/28 06:59:16;;;;;;;10.63;6.87;;;;;;;12.09;83.31;99332.78;5058646;28;20473;-81
2023/04/28 07:01:41;;;;;;;12.57;6.20;;;;;;;12.25;82.53;99342.53;5060103;28;20270;-80
2023/04/28 07:04:06;;;;;;;11.68;5.78;;;;;;;12.33;82.75;99345.75;5058264;28;20360;-80
2023/04/28 07:06:32;;;;;;;9.87;5.07;;;;;;;12.26;82.41;99344.16;5062689;28;20138;-81
2023/04/28 07:08:57;;;;;;;11.45;5.15;;;;;;;12.06;82.67;99333.38;5061514;28;20265;-80
2023/04/28 07:11:22;;;;;;;11.60;5.53;;;;;;;11.99;83.15;99337.25;5062482;28;20024;-80
2023/04/28 07:13:50;;;;;;;14.90;6.20;;;;;;;12.13;83.38;99331.97;5061405;28;20036;-81
2023/04/28 07:16:20;;;;;;;10.02;4.63;;;;;;;12.10;83.29;99328.97;5063507;28;20288;-79
2023/04/28 07:18:45;;;;;;;11.52;6.13;;;;;;;11.98;83.49;99324.66;5062976;28;20058;-80
2023/04/28 07:21:10;;;;;;;10.63;6.40;;;;;;;12.07;83.18;99313.97;5062275;28;20036;-82
2023/04/28 07:23:37;;;;;;;8.43;4.60;;;;;;;12.29;83.28;99320.06;5062754;28;20111;-80
2023/04/28 07:26:03;;;;;;;9.98;5.40;;;;;;;12.38;83.16;99321.09;5062712;28;20647;-80
2023/04/28 07:28:28;;;;;;;10.35;5.68;;;;;;;12.31;83.02;99313.22;5061877;28;20036;-82
2023/04/28 07:30:53;;;;;;;10.13;5.63;;;;;;;12.32;83.27;99319.53;5062599;28;20094;-79
2023/04/28 07:33:18;;;;;;;17.47;7.27;;;;;;;12.49;82.76;99321.81;5061982;28;20024;-79
2023/04/28 07:35:44;;;;;;;12.32;6.10;;;;;;;12.40;82.58;99323.53;5061724;28;20949;-80
2023/04/28 07:38:09;;;;;;;11.15;5.47;;;;;;;12.23;83.17;99311.94;5061990;28;20036;-82
2023/04/28 07:40:35;;;;;;;11.35;5.35;;;;;;;12.28;83.17;99323.94;5062019;28;20521;-82
2023/04/28 07:43:00;;;;;;;24.95;6.80;;;;;;;12.41;82.67;99323.25;5061390;28;20033;-82
2023/04/28 07:45:26;;;;;;;10.43;4.97;;;;;;;12.46;82.68;99317.75;5061507;28;20715;-81
2023/04/28 07:47:51;;;;;;;8.25;4.32;;;;;;;12.60;82.78;99322.53;5061695;28;20064;-81
2023/04/28 07:50:16;;;;;;;12.10;5.23;;;;;;;12.70;82.78;99330.63;5061415;28;20032;-80
2023/04/28 07:52:42;;;;;;;9.25;4.70;;;;;;;12.84;82.15;99325.28;5061719;28;20334;-80
2023/04/28 07:55:08;;;;;;;7.43;4.60;;;;;;;13.02;81.67;99336.56;5062098;28;20032;-80
2023/04/28 07:57:34;;;;;;;12.23;5.78;;;;;;;13.10;81.63;99335.09;5061891;28;20060;-80
2023/04/28 07:59:59;;;;;;;10.20;4.47;;;;;;;13.17;80.97;99332.84;5060878;28;20046;-82
2023/04/28 08:02:26;;;;;;;13.38;6.00;;;;;;;13.08;81.22;99335.41;5063118;28;20028;-81
2023/04/28 08:04:51;;;;;;;9.10;4.70;;;;;;;13.13;80.80;99334.53;5061449;28;20063;-82
2023/04/28 08:07:16;;;;;;;9.70;5.55;;;;;;;13.33;80.24;99343.59;5061706;28;20182;-80
2023/04/28 08:09:45;;;;;;;8.37;5.03;;;;;;;13.27;80.84;99342.03;5059684;28;20220;-80
2023/04/28 08:12:12;;;;;;;11.18;5.72;;;;;;;13.32;80.28;99347.44;5061125;28;20275;-80
2023/04/28 08:14:37;;;;;;;7.85;4.38;;;;;;;13.27;80.55;99347.50;5061247;28;21008;-80
2023/04/28 08:17:02;;;;;;;9.63;5.10;;;;;;;13.35;80.50;99341.38;5060771;28;20127;-80
2023/04/28 08:19:28;;;;;;;11.23;5.90;;;;;;;13.48;80.37;99339.84;5062190;28;20020;-81
2023/04/28 08:21:53;;;;;;;8.73;4.82;;;;;;;13.37;80.17;99339.16;5061787;28;20818;-80
2023/04/28 08:24:18;;;;;;;10.50;5.78;;;;;;;13.40;80.04;99338.56;5060729;28;20040;-79
2023/04/28 08:26:44;;;;;;;8.00;4.85;;;;;;;13.53;80.08;99345.25;5061954;28;20151;-80
2023/04/28 08:29:09;;;;;;;15.93;5.82;;;;;;;13.60;79.85;99338.59;5060676;28;20060;-83
2023/04/28 08:31:34;;;;;;;9.13;4.60;;;;;;;13.41;79.89;99342.94;5061115;28;20546;-82
2023/04/28 08:34:00;;;;;;;12.07;6.13;;;;;;;13.48;79.98;99349.97;5060497;28;20290;-81
2023/04/28 08:36:30;;;;;;;10.17;4.20;;;;;;;13.42;79.89;99347.28;5062024;28;20283;-80
2023/04/28 08:38:58;;;;;;;10.13;4.90;;;;;;;13.45;79.66;99343.16;5062856;28;20357;-81
2023/04/28 08:41:25;;;;;;;10.25;4.97;;;;;;;13.43;79.96;99335.25;5059327;28;20833;-81
2023/04/28 08:43:50;;;;;;;10.55;5.97;;;;;;;13.52;79.63;99331.84;5060990;28;20518;-80
2023/04/28 08:46:20;;;;;;;9.55;4.82;;;;;;;13.57;79.76;99340.00;5060805;28;20035;-80
2023/04/28 08:48:45;;;;;;;9.98;5.82;;;;;;;13.64;79.48;99334.16;5060044;28;20028;-83
2023/04/28 08:51:15;;;;;;;7.47;4.30;;;;;;;13.71;79.05;99333.81;5060051;28;20035;-81
2023/04/28 08:53:43;;;;;;;8.98;5.22;;;;;;;13.80;78.67;99331.19;5060665;28;20123;-80
2023/04/28 08:56:12;;;;;;;9.00;5.65;;;;;;;13.92;78.56;99323.34;5060289;28;20564;-82
2023/04/28 08:58:38;;;;;;;9.25;4.78;;;;;;;13.90;79.24;99325.56;5061141;28;20108;-80
2023/04/28 09:01:03;;;;;;;10.75;6.28;;;;;;;13.92;78.52;99325.25;5061827;28;20078;-81
2023/04/28 09:03:30;;;;;;;15.63;5.80;;;;;;;13.91;78.61;99326.38;5059272;28;20040;-81
2023/04/28 09:05:56;;;;;;;9.88;5.35;;;;;;;13.83;79.08;99331.41;5061289;28;20040;-81
2023/04/28 09:08:21;;;;;;;14.18;6.10;;;;;;;13.68;79.33;99320.69;5060778;28;20021;-80
2023/04/28 09:10:46;;;;;;;8.45;5.55;;;;;;;13.66;79.79;99318.25;5059633;28;20021;-80
2023/04/28 09:13:24;;;;;;;14.65;6.40;;;;;;;13.77;79.54;99318.91;5060990;28;20039;-81
2023/04/28 09:15:50;;;;;;;8.13;4.30;;;;;;;13.84;79.56;99316.63;5057180;28;20114;-82
2023/04/28 09:18:16;;;;;;;9.50;5.53;;;;;;;13.83;79.66;99314.97;5060020;28;20067;-82
2023/04/28 09:20:41;;;;;;;8.65;4.57;;;;;;;13.85;79.52;99304.53;5059666;28;20397;-82
2023/04/28 09:23:20;;;;;;;13.52;5.72;;;;;;;13.97;79.41;99315.03;5060096;28;20033;-82
2023/04/28 09:26:06;;;;;;;10.45;5.03;;;;;;;14.04;78.81;99303.69;5059444;28;20500;-81
2023/04/28 09:28:33;;;;;;;12.27;7.05;;;;;;;14.15;79.02;99311.75;5057740;28;20127;-80
2023/04/28 09:30:58;;;;;;;13.15;4.80;;;;;;;14.20;78.68;99317.13;5060140;28;20090;-82
2023/04/28 09:33:24;;;;;;;9.65;5.97;;;;;;;14.19;78.95;99316.34;5060688;28;20037;-82
2023/04/28 09:35:50;;;;;;;10.80;5.68;;;;;;;14.42;78.07;99318.44;5060576;28;20040;-81
2023/04/28 09:38:17;;;;;;;8.93;5.13;;;;;;;14.53;77.82;99317.13;5060625;28;20041;-81
2023/04/28 09:40:55;;;;;;;13.50;5.38;;;;;;;14.51;78.34;99315.78;5059512;28;20052;-82
2023/04/28 09:43:24;;;;;;;14.20;5.40;;;;;;;14.74;77.39;99319.47;5060397;28;20460;-81
2023/04/28 09:45:49;;;;;;;11.23;6.22;;;;;;;14.71;77.14;99320.91;5059033;28;20040;-80
2023/04/28 09:48:14;;;;;;;12.23;4.93;;;;;;;14.69;77.35;99325.06;5059731;28;20943;-82
2023/04/28 09:50:40;;;;;;;10.47;5.77;;;;;;;14.79;76.90;99321.28;5059650;28;20028;-82
2023/04/28 09:53:10;;;;;;;9.23;5.75;;;;;;;14.82;76.87;99327.00;5060314;28;20262;-80
2023/04/28 09:55:42;;;;;;;12.25;6.15;;;;;;;14.68;77.68;99327.00;5059306;28;20090;-80
2023/04/28 09:58:07;;;;;;;9.68;4.68;;;;;;;14.56;78.32;99324.72;5059599;28;20033;-81
2023/04/28 10:00:33;;;;;;;7.25;5.18;;;;;;;14.53;78.49;99319.84;5059988;28;20086;-80
2023/04/28 10:02:59;;;;;;;14.40;5.30;;;;;;;14.45;79.41;99317.81;5059411;28;20589;-80
2023/04/28 10:05:25;;;;;;;11.13;6.47;;;;;;;14.46;79.85;99316.72;5060033;28;20036;-81
2023/04/28 10:07:52;;;;;;;11.73;5.63;;;;;;;14.55;80.47;99317.63;5059663;28;20032;-81
2023/04/28 10:10:18;;;;;;;10.75;5.75;;;;;;;14.53;81.88;99313.56;5058746;28;20537;-80
2023/04/28 10:12:44;;;;;;;10.32;5.10;;;;;;;14.66;81.89;99314.69;5057889;28;20029;-80
2023/04/28 10:15:12;;;;;;;14.18;6.60;;;;;;;14.75;82.33;99307.38;5058741;28;20110;-83
2023/04/28 10:17:37;;;;;;;12.13;5.78;;;;;;;14.73;82.36;99306.03;5058242;28;20045;-81
2023/04/28 10:20:04;;;;;;;10.45;5.13;;;;;;;14.93;81.59;99302.13;5059740;28;20032;-81
2023/04/28 10:22:57;;;;;;;15.23;5.85;;;;;;;14.98;81.18;99299.28;5088563;28;20087;-82
2023/04/28 10:25:26;;;;;;;8.68;4.63;;;;;;;15.03;80.71;99295.63;5059342;28;20474;-81
2023/04/28 10:27:52;;;;;;;12.98;5.60;;;;;;;14.90;81.17;99305.47;5058498;28;20650;-80
2023/04/28 10:30:22;;;;;;;13.27;6.18;;;;;;;14.93;81.01;99299.38;5058874;28;20044;-80
2023/04/28 10:33:10;;;;;;;10.52;5.65;;;;;;;14.88;81.70;99302.22;5059461;28;20028;-80
2023/04/28 10:35:39;;;;;;;11.43;5.70;;;;;;;14.88;81.47;99297.56;5059291;28;20064;-81
2023/04/28 10:38:13;;;;;;;13.20;6.70;;;;;;;14.86;81.86;99298.97;5059561;28;20033;-83
2023/04/28 10:40:43;;;;;;;8.82;5.18;;;;;;;14.79;82.12;99293.84;5060206;28;20056;-80
2023/04/28 10:43:10;;;;;;;12.55;5.55;;;;;;;14.89;82.23;99298.38;5063747;28;20477;-82
2023/04/28 10:46:02;;;;;;;9.50;4.57;;;;;;;14.79;82.29;99294.69;5063263;28;20096;-80
2023/04/28 10:48:28;;;;;;;13.10;6.72;;;;;;;14.66;82.56;99301.81;5057114;28;20051;-80
2023/04/28 10:51:06;;;;;;;9.75;5.30;;;;;;;14.52;83.24;99293.53;5063253;28;20040;-80
2023/04/28 10:53:43;;;;;;;11.13;5.65;;;;;;;14.61;83.50;99293.66;5062368;28;20059;-80
2023/04/28 10:56:17;;;;;;;12.43;5.97;;;;;;;14.80;82.71;99299.06;5062025;28;20039;-81
2023/04/28 10:58:47;;;;;;;13.13;5.22;;;;;;;14.78;83.78;99300.47;5063011;28;20558;-80
2023/04/28 11:01:25;;;;;;;12.70;6.28;;;;;;;14.48;85.79;99298.03;5063213;28;20124;-81
2023/04/28 11:04:15;;;;;;;8.70;5.43;;;;;;;14.44;86.26;99299.75;5062384;28;20033;-81
2023/04/28 11:06:42;;;;;;;12.98;5.05;;;;;;;14.46;86.15;99300.25;5062416;28;20029;-80
2023/04/28 11:09:13;;;;;;;8.18;4.88;;;;;;;14.52;86.20;99296.28;5063221;28;20044;-81
2023/04/28 11:12:09;;;;;;;8.98;4.50;;;;;;;14.49;87.00;99305.13;5062250;28;20048;-81
2023/04/28 11:14:36;;;;;;;12.25;6.03;;;;;;;14.33;87.04;99293.63;5092107;28;20035;-80
2023/04/28 11:17:03;;;;;;;8.77;4.88;;;;;;;14.33;87.44;99304.59;5061111;28;20029;-82
2023/04/28 11:19:32;;;;;;;9.70;5.38;;;;;;;14.23;87.43;99300.09;5062588;28;20025;-81
2023/04/28 11:21:59;;;;;;;10.75;5.68;;;;;;;14.17;87.77;99299.38;5063415;28;20056;-81
2023/04/28 11:24:29;;;;;;;9.57;5.47;;;;;;;14.06;88.06;99297.91;5063634;28;20111;-81